sensor_id;sensor_type;location;lat;lon;timestamp;pressure;altitude;pressure_sealevel;temperature;humidity
50977;BME280;36992;48.200;12.418;2022-07-29T00:01:14;96638.06;;;26.77;39.68
50977;BME280;36992;48.200;12.418;2022-07-29T00:03:41;96633.72;;;26.76;40.01
50977;BME280;36992;48.200;12.418;2022-07-29T00:06:07;96630.16;;;26.75;40.03
50977;BME280;36992;48.200;12.418;2022-07-29T00:08:35;96631.75;;;26.76;39.91
50977;BME280;36992;48.200;12.418;2022-07-29T00:11:02;96636.50;;;26.76;40.17
50977;BME280;36992;48.200;12.418;2022-07-29T00:13:28;96631.75;;;26.76;40.18
50977;BME280;36992;48.200;12.418;2022-07-29T00:15:55;96636.50;;;26.76;39.75
50977;BME280;36992;48.200;12.418;2022-07-29T00:18:21;96631.75;;;26.76;39.73
50977;BME280;36992;48.200;12.418;2022-07-29T00:20:47;96631.38;;;26.74;39.52
50977;BME280;36992;48.200;12.418;2022-07-29T00:23:14;96636.50;;;26.72;39.57
50977;BME280;36992;48.200;12.418;2022-07-29T00:25:42;96634.91;;;26.71;39.32
50977;BME280;36992;48.200;12.418;2022-07-29T00:28:08;96629.44;;;26.64;39.52
50977;BME280;36992;48.200;12.418;2022-07-29T00:30:35;96635.78;;;26.61;39.24
50977;BME280;36992;48.200;12.418;2022-07-29T00:33:01;96630.25;;;26.57;39.51
50977;BME280;36992;48.200;12.418;2022-07-29T00:35:28;96630.28;;;26.53;39.55
50977;BME280;36992;48.200;12.418;2022-07-29T00:38:09;96635.03;;;26.49;39.36
50977;BME280;36992;48.200;12.418;2022-07-29T00:40:35;96637.41;;;26.47;39.66
50977;BME280;36992;48.200;12.418;2022-07-29T00:43:03;96639.75;;;26.49;39.63
50977;BME280;36992;48.200;12.418;2022-07-29T00:45:30;96639.75;;;26.45;40.03
50977;BME280;36992;48.200;12.418;2022-07-29T00:47:57;96637.41;;;26.47;39.75
50977;BME280;36992;48.200;12.418;2022-07-29T00:50:24;96630.31;;;26.46;39.93
50977;BME280;36992;48.200;12.418;2022-07-29T00:52:52;96636.59;;;26.47;39.75
50977;BME280;36992;48.200;12.418;2022-07-29T00:55:18;96638.19;;;26.44;39.65
50977;BME280;36992;48.200;12.418;2022-07-29T00:57:45;96636.22;;;26.45;39.55
50977;BME280;36992;48.200;12.418;2022-07-29T01:00:16;96646.06;;;26.49;39.67
50977;BME280;36992;48.200;12.418;2022-07-29T01:02:43;96650.81;;;26.45;39.74
50977;BME280;36992;48.200;12.418;2022-07-29T01:05:11;96646.88;;;26.46;39.76
50977;BME280;36992;48.200;12.418;2022-07-29T01:07:39;96651.97;;;26.48;39.93
50977;BME280;36992;48.200;12.418;2022-07-29T01:10:08;96645.25;;;26.49;40.06
50977;BME280;36992;48.200;12.418;2022-07-29T01:12:36;96642.13;;;26.47;40.16
50977;BME280;36992;48.200;12.418;2022-07-29T01:15:06;96641.34;;;26.46;40.08
50977;BME280;36992;48.200;12.418;2022-07-29T01:17:37;96642.94;;;26.47;39.93
50977;BME280;36992;48.200;12.418;2022-07-29T01:20:09;96644.50;;;26.45;39.64
50977;BME280;36992;48.200;12.418;2022-07-29T01:25:47;96632.28;;;26.42;39.58
50977;BME280;36992;48.200;12.418;2022-07-29T01:31:13;96635.06;;;26.35;40.03
50977;BME280;36992;48.200;12.418;2022-07-29T01:33:45;96635.84;;;26.32;40.15
50977;BME280;36992;48.200;12.418;2022-07-29T01:36:18;96632.72;;;26.30;40.30
50977;BME280;36992;48.200;12.418;2022-07-29T01:38:51;96628.38;;;26.29;39.76
50977;BME280;36992;48.200;12.418;2022-07-29T01:41:20;96627.22;;;26.22;40.16
50977;BME280;36992;48.200;12.418;2022-07-29T01:43:51;96621.69;;;26.22;40.45
50977;BME280;36992;48.200;12.418;2022-07-29T01:46:26;96616.94;;;26.23;40.35
50977;BME280;36992;48.200;12.418;2022-07-29T01:48:57;96614.97;;;26.20;40.04
50977;BME280;36992;48.200;12.418;2022-07-29T01:51:34;96611.41;;;26.19;39.76
50977;BME280;36992;48.200;12.418;2022-07-29T01:54:05;96607.50;;;26.13;39.82
50977;BME280;36992;48.200;12.418;2022-07-29T01:56:34;96600.78;;;26.07;39.73
50977;BME280;36992;48.200;12.418;2022-07-29T01:59:03;96600.44;;;26.01;40.06
50977;BME280;36992;48.200;12.418;2022-07-29T02:01:32;96601.22;;;25.98;39.97
50977;BME280;36992;48.200;12.418;2022-07-29T02:04:03;96595.69;;;25.94;40.11
50977;BME280;36992;48.200;12.418;2022-07-29T02:06:32;96596.50;;;25.91;40.41
50977;BME280;36992;48.200;12.418;2022-07-29T02:09:00;96596.53;;;25.88;40.75
50977;BME280;36992;48.200;12.418;2022-07-29T02:11:29;96605.19;;;25.86;40.82
50977;BME280;36992;48.200;12.418;2022-07-29T02:13:57;96593.34;;;25.85;41.27
50977;BME280;36992;48.200;12.418;2022-07-29T02:16:26;96583.88;;;25.86;41.14
50977;BME280;36992;48.200;12.418;2022-07-29T02:18:55;96576.41;;;25.87;41.15
50977;BME280;36992;48.200;12.418;2022-07-29T02:21:24;96577.97;;;25.88;41.15
50977;BME280;36992;48.200;12.418;2022-07-29T02:23:54;96580.34;;;25.86;41.35
50977;BME280;36992;48.200;12.418;2022-07-29T02:26:24;96576.41;;;25.87;41.08
50977;BME280;36992;48.200;12.418;2022-07-29T02:28:54;96575.22;;;25.84;41.19
50977;BME280;36992;48.200;12.418;2022-07-29T02:31:23;96579.19;;;25.80;41.34
50977;BME280;36992;48.200;12.418;2022-07-29T02:33:51;96571.31;;;25.75;41.46
50977;BME280;36992;48.200;12.418;2022-07-29T02:36:21;96565.00;;;25.70;41.17
50977;BME280;36992;48.200;12.418;2022-07-29T02:38:50;96563.81;;;25.64;41.45
50977;BME280;36992;48.200;12.418;2022-07-29T02:41:18;96552.41;;;25.58;41.19
50977;BME280;36992;48.200;12.418;2022-07-29T02:43:47;96556.38;;;25.54;40.99
50977;BME280;36992;48.200;12.418;2022-07-29T02:46:18;96564.19;;;25.52;40.64
50977;BME280;36992;48.200;12.418;2022-07-29T02:48:51;96558.69;;;25.44;40.68
50977;BME280;36992;48.200;12.418;2022-07-29T02:51:25;96561.06;;;25.39;40.82
50977;BME280;36992;48.200;12.418;2022-07-29T02:53:56;96555.56;;;25.28;40.63
50977;BME280;36992;48.200;12.418;2022-07-29T02:56:25;96560.28;;;25.24;40.92
50977;BME280;36992;48.200;12.418;2022-07-29T02:58:55;96555.16;;;25.15;41.33
50977;BME280;36992;48.200;12.418;2022-07-29T03:01:24;96555.97;;;25.12;41.50
50977;BME280;36992;48.200;12.418;2022-07-29T03:03:53;96559.88;;;25.07;41.65
50977;BME280;36992;48.200;12.418;2022-07-29T03:06:23;96559.88;;;25.07;41.54
50977;BME280;36992;48.200;12.418;2022-07-29T03:08:52;96557.13;;;25.07;41.72
50977;BME280;36992;48.200;12.418;2022-07-29T03:11:20;96547.66;;;25.08;42.26
50977;BME280;36992;48.200;12.418;2022-07-29T03:13:47;96555.16;;;25.11;41.61
50977;BME280;36992;48.200;12.418;2022-07-29T03:16:15;96556.72;;;25.12;41.93
50977;BME280;36992;48.200;12.418;2022-07-29T03:18:42;96550.03;;;25.13;41.49
50977;BME280;36992;48.200;12.418;2022-07-29T03:21:08;96558.72;;;25.15;41.60
50977;BME280;36992;48.200;12.418;2022-07-29T03:23:36;96559.09;;;25.17;41.51
50977;BME280;36992;48.200;12.418;2022-07-29T03:26:03;96553.59;;;25.17;41.75
50977;BME280;36992;48.200;12.418;2022-07-29T03:28:29;96554.38;;;25.18;41.56
50977;BME280;36992;48.200;12.418;2022-07-29T03:30:56;96554.78;;;25.16;41.23
50977;BME280;36992;48.200;12.418;2022-07-29T03:33:22;96553.97;;;25.12;41.01
50977;BME280;36992;48.200;12.418;2022-07-29T03:35:48;96550.41;;;25.08;41.39
50977;BME280;36992;48.200;12.418;2022-07-29T03:38:15;96544.91;;;25.01;41.49
50977;BME280;36992;48.200;12.418;2022-07-29T03:40:46;96542.94;;;24.98;41.11
50977;BME280;36992;48.200;12.418;2022-07-29T03:43:15;96552.38;;;24.89;41.73
50977;BME280;36992;48.200;12.418;2022-07-29T03:45:44;96544.50;;;24.84;41.90
50977;BME280;36992;48.200;12.418;2022-07-29T03:48:16;96549.19;;;24.80;41.75
50977;BME280;36992;48.200;12.418;2022-07-29T03:50:44;96541.69;;;24.73;42.28
50977;BME280;36992;48.200;12.418;2022-07-29T03:53:11;96549.16;;;24.69;42.52
50977;BME280;36992;48.200;12.418;2022-07-29T03:55:43;96547.59;;;24.72;42.30
50977;BME280;36992;48.200;12.418;2022-07-29T03:58:10;96551.91;;;24.65;42.78
50977;BME280;36992;48.200;12.418;2022-07-29T04:00:39;96560.19;;;24.65;42.76
50977;BME280;36992;48.200;12.418;2022-07-29T04:03:06;96558.56;;;24.64;42.79
50977;BME280;36992;48.200;12.418;2022-07-29T04:05:33;96549.94;;;24.66;42.73
50977;BME280;36992;48.200;12.418;2022-07-29T04:07:59;96552.31;;;24.68;42.69
50977;BME280;36992;48.200;12.418;2022-07-29T04:10:26;96552.31;;;24.68;42.75
50977;BME280;36992;48.200;12.418;2022-07-29T04:12:54;96555.44;;;24.70;42.69
50977;BME280;36992;48.200;12.418;2022-07-29T04:15:20;96556.25;;;24.67;42.80
50977;BME280;36992;48.200;12.418;2022-07-29T04:17:47;96564.13;;;24.68;42.82
50977;BME280;36992;48.200;12.418;2022-07-29T04:20:13;96571.59;;;24.68;42.91
50977;BME280;36992;48.200;12.418;2022-07-29T04:22:40;96568.84;;;24.68;43.30
50977;BME280;36992;48.200;12.418;2022-07-29T04:25:07;96571.19;;;24.69;43.05
50977;BME280;36992;48.200;12.418;2022-07-29T04:27:34;96571.19;;;24.69;43.27
50977;BME280;36992;48.200;12.418;2022-07-29T04:30:02;96582.22;;;24.73;43.21
50977;BME280;36992;48.200;12.418;2022-07-29T04:32:30;96585.34;;;24.71;43.12
50977;BME280;36992;48.200;12.418;2022-07-29T04:34:56;96580.66;;;24.72;43.07
50977;BME280;36992;48.200;12.418;2022-07-29T04:37:23;96588.91;;;24.72;42.95
50977;BME280;36992;48.200;12.418;2022-07-29T04:39:49;96590.06;;;24.71;43.03
50977;BME280;36992;48.200;12.418;2022-07-29T04:42:16;96588.91;;;24.72;43.00
50977;BME280;36992;48.200;12.418;2022-07-29T04:44:42;96581.81;;;24.71;43.29
50977;BME280;36992;48.200;12.418;2022-07-29T04:47:10;96588.50;;;24.73;43.02
50977;BME280;36992;48.200;12.418;2022-07-29T04:49:37;96597.19;;;24.72;43.20
50977;BME280;36992;48.200;12.418;2022-07-29T04:52:05;96586.94;;;24.69;43.30
50977;BME280;36992;48.200;12.418;2022-07-29T04:54:31;96589.28;;;24.67;43.28
50977;BME280;36992;48.200;12.418;2022-07-29T04:56:58;96587.72;;;24.65;43.39
50977;BME280;36992;48.200;12.418;2022-07-29T04:59:24;96586.13;;;24.64;43.19
50977;BME280;36992;48.200;12.418;2022-07-29T05:01:51;96586.13;;;24.64;42.94
50977;BME280;36992;48.200;12.418;2022-07-29T05:04:19;96589.28;;;24.67;42.96
50977;BME280;36992;48.200;12.418;2022-07-29T05:06:45;96593.22;;;24.65;43.11
50977;BME280;36992;48.200;12.418;2022-07-29T05:09:12;96597.53;;;24.67;43.04
50977;BME280;36992;48.200;12.418;2022-07-29T05:11:38;96592.03;;;24.67;43.25
50977;BME280;36992;48.200;12.418;2022-07-29T05:14:05;96590.84;;;24.68;43.29
50977;BME280;36992;48.200;12.418;2022-07-29T05:16:31;96594.00;;;24.70;43.38
50977;BME280;36992;48.200;12.418;2022-07-29T05:18:58;96599.50;;;24.70;43.37
50977;BME280;36992;48.200;12.418;2022-07-29T05:21:26;96610.94;;;24.72;42.90
50977;BME280;36992;48.200;12.418;2022-07-29T05:23:52;96611.31;;;24.70;43.32
50977;BME280;36992;48.200;12.418;2022-07-29T05:26:19;96617.59;;;24.71;43.35
50977;BME280;36992;48.200;12.418;2022-07-29T05:28:45;96621.53;;;24.70;43.28
50977;BME280;36992;48.200;12.418;2022-07-29T05:31:12;96621.16;;;24.68;43.83
50977;BME280;36992;48.200;12.418;2022-07-29T05:33:39;96616.41;;;24.64;43.67
50977;BME280;36992;48.200;12.418;2022-07-29T05:36:06;96616.00;;;24.62;43.90
50977;BME280;36992;48.200;12.418;2022-07-29T05:38:35;96617.19;;;24.61;43.44
50977;BME280;36992;48.200;12.418;2022-07-29T05:41:02;96621.50;;;24.55;43.95
50977;BME280;36992;48.200;12.418;2022-07-29T05:43:29;96625.44;;;24.54;44.15
50977;BME280;36992;48.200;12.418;2022-07-29T05:45:56;96615.19;;;24.51;44.01
50977;BME280;36992;48.200;12.418;2022-07-29T05:48:23;96623.03;;;24.49;44.02
50977;BME280;36992;48.200;12.418;2022-07-29T05:50:49;96617.53;;;24.45;43.89
50977;BME280;36992;48.200;12.418;2022-07-29T05:53:16;96616.72;;;24.45;44.02
50977;BME280;36992;48.200;12.418;2022-07-29T05:55:43;96617.16;;;24.47;43.97
50977;BME280;36992;48.200;12.418;2022-07-29T05:58:10;96609.66;;;24.47;43.93
50977;BME280;36992;48.200;12.418;2022-07-29T06:00:36;96613.97;;;24.48;43.71
50977;BME280;36992;48.200;12.418;2022-07-29T06:03:03;96619.13;;;24.50;43.64
50977;BME280;36992;48.200;12.418;2022-07-29T06:05:29;96615.19;;;24.51;43.57
50977;BME280;36992;48.200;12.418;2022-07-29T06:07:56;96612.03;;;24.52;43.78
50977;BME280;36992;48.200;12.418;2022-07-29T06:10:22;96615.19;;;24.55;44.02
50977;BME280;36992;48.200;12.418;2022-07-29T06:12:51;96617.97;;;24.58;43.55
50977;BME280;36992;48.200;12.418;2022-07-29T06:15:17;96622.31;;;24.59;43.66
50977;BME280;36992;48.200;12.418;2022-07-29T06:17:44;96623.09;;;24.63;44.12
50977;BME280;36992;48.200;12.418;2022-07-29T06:20:10;96623.91;;;24.68;44.01
50977;BME280;36992;48.200;12.418;2022-07-29T06:22:37;96628.63;;;24.71;44.24
50977;BME280;36992;48.200;12.418;2022-07-29T06:25:04;96623.94;;;24.75;44.04
50977;BME280;36992;48.200;12.418;2022-07-29T06:27:30;96624.72;;;24.79;44.72
50977;BME280;36992;48.200;12.418;2022-07-29T06:29:58;96627.91;;;24.85;44.07
50977;BME280;36992;48.200;12.418;2022-07-29T06:32:25;96623.22;;;24.89;44.04
50977;BME280;36992;48.200;12.418;2022-07-29T06:34:51;96629.91;;;24.91;43.87
50977;BME280;36992;48.200;12.418;2022-07-29T06:37:17;96628.75;;;24.96;44.08
50977;BME280;36992;48.200;12.418;2022-07-29T06:39:44;96631.13;;;25.01;44.71
50977;BME280;36992;48.200;12.418;2022-07-29T06:42:11;96620.91;;;25.05;44.32
50977;BME280;36992;48.200;12.418;2022-07-29T06:44:37;96634.28;;;25.11;43.82
50977;BME280;36992;48.200;12.418;2022-07-29T06:47:05;96637.44;;;25.16;43.82
50977;BME280;36992;48.200;12.418;2022-07-29T06:49:31;96638.63;;;25.19;44.18
50977;BME280;36992;48.200;12.418;2022-07-29T06:51:58;96637.84;;;25.22;43.74
50977;BME280;36992;48.200;12.418;2022-07-29T06:54:24;96638.25;;;25.24;43.76
50977;BME280;36992;48.200;12.418;2022-07-29T06:56:51;96642.16;;;25.27;44.69
50977;BME280;36992;48.200;12.418;2022-07-29T06:59:17;96640.59;;;25.29;45.00
50977;BME280;36992;48.200;12.418;2022-07-29T07:01:44;96640.22;;;25.31;45.03
50977;BME280;36992;48.200;12.418;2022-07-29T07:04:12;96645.72;;;25.35;44.46
50977;BME280;36992;48.200;12.418;2022-07-29T07:06:39;96642.97;;;25.35;44.44
50977;BME280;36992;48.200;12.418;2022-07-29T07:09:06;96641.41;;;25.37;45.06
50977;BME280;36992;48.200;12.418;2022-07-29T07:11:32;96652.81;;;25.39;45.08
50977;BME280;36992;48.200;12.418;2022-07-29T07:13:59;96646.16;;;25.40;44.61
50977;BME280;36992;48.200;12.418;2022-07-29T07:16:25;96644.97;;;25.41;44.74
50977;BME280;36992;48.200;12.418;2022-07-29T07:18:52;96639.44;;;25.41;44.05
50977;BME280;36992;48.200;12.418;2022-07-29T07:21:19;96645.34;;;25.43;44.11
50977;BME280;36992;48.200;12.418;2022-07-29T07:23:46;96648.09;;;25.43;43.87
50977;BME280;36992;48.200;12.418;2022-07-29T07:26:12;96643.78;;;25.42;44.28
50977;BME280;36992;48.200;12.418;2022-07-29T07:28:39;96646.16;;;25.44;43.72
50977;BME280;36992;48.200;12.418;2022-07-29T07:31:06;96650.09;;;25.46;43.60
50977;BME280;36992;48.200;12.418;2022-07-29T07:33:32;96648.50;;;25.49;43.01
50977;BME280;36992;48.200;12.418;2022-07-29T07:35:59;96646.16;;;25.51;42.95
50977;BME280;36992;48.200;12.418;2022-07-29T07:38:26;96647.75;;;25.56;43.05
50977;BME280;36992;48.200;12.418;2022-07-29T07:40:53;96643.81;;;25.57;42.76
50977;BME280;36992;48.200;12.418;2022-07-29T07:43:19;96633.97;;;25.59;43.05
50977;BME280;36992;48.200;12.418;2022-07-29T07:45:47;96636.72;;;25.63;42.80
50977;BME280;36992;48.200;12.418;2022-07-29T07:48:13;96632.78;;;25.64;42.97
50977;BME280;36992;48.200;12.418;2022-07-29T07:50:39;96641.47;;;25.66;42.90
50977;BME280;36992;48.200;12.418;2022-07-29T07:53:06;96638.69;;;25.66;42.94
50977;BME280;36992;48.200;12.418;2022-07-29T07:55:39;96635.94;;;25.73;42.48
50977;BME280;36992;48.200;12.418;2022-07-29T07:58:06;96631.59;;;25.72;42.04
50977;BME280;36992;48.200;12.418;2022-07-29T08:00:33;96633.56;;;25.76;42.22
50977;BME280;36992;48.200;12.418;2022-07-29T08:02:59;96635.13;;;25.80;42.17
50977;BME280;36992;48.200;12.418;2022-07-29T08:05:26;96630.41;;;25.84;42.15
50977;BME280;36992;48.200;12.418;2022-07-29T08:07:52;96633.56;;;25.90;42.27
50977;BME280;36992;48.200;12.418;2022-07-29T08:10:19;96627.63;;;25.95;42.04
50977;BME280;36992;48.200;12.418;2022-07-29T08:13:03;96629.59;;;26.06;42.14
50977;BME280;36992;48.200;12.418;2022-07-29T08:15:29;96629.97;;;26.08;41.34
50977;BME280;36992;48.200;12.418;2022-07-29T08:17:56;96637.84;;;26.13;41.90
50977;BME280;36992;48.200;12.418;2022-07-29T08:20:22;96634.31;;;26.16;41.86
50977;BME280;36992;48.200;12.418;2022-07-29T08:22:49;96639.44;;;26.21;42.09
50977;BME280;36992;48.200;12.418;2022-07-29T08:25:15;96633.91;;;26.25;41.61
50977;BME280;36992;48.200;12.418;2022-07-29T08:27:45;96637.44;;;26.29;40.94
50977;BME280;36992;48.200;12.418;2022-07-29T08:30:13;96634.66;;;26.33;41.40
50977;BME280;36992;48.200;12.418;2022-07-29T08:32:40;96636.66;;;26.36;40.74
50977;BME280;36992;48.200;12.418;2022-07-29T08:35:07;96635.06;;;26.38;41.49
50977;BME280;36992;48.200;12.418;2022-07-29T08:37:34;96635.03;;;26.42;41.66
50977;BME280;36992;48.200;12.418;2022-07-29T08:40:00;96635.84;;;26.46;41.96
50977;BME280;36992;48.200;12.418;2022-07-29T08:42:27;96632.63;;;26.51;41.26
50977;BME280;36992;48.200;12.418;2022-07-29T08:44:54;96631.03;;;26.58;41.06
50977;BME280;36992;48.200;12.418;2022-07-29T08:47:23;96634.16;;;26.67;40.87
50977;BME280;36992;48.200;12.418;2022-07-29T08:49:51;96623.09;;;26.71;40.86
50977;BME280;36992;48.200;12.418;2022-07-29T08:52:18;96629.78;;;26.77;39.83
50977;BME280;36992;48.200;12.418;2022-07-29T08:54:45;96638.41;;;26.83;39.83
50977;BME280;36992;48.200;12.418;2022-07-29T08:57:13;96625.00;;;26.88;38.61
50977;BME280;36992;48.200;12.418;2022-07-29T08:59:42;96628.91;;;26.98;39.57
50977;BME280;36992;48.200;12.418;2022-07-29T09:02:15;96630.44;;;27.06;39.27
50977;BME280;36992;48.200;12.418;2022-07-29T09:04:46;96630.81;;;27.12;38.83
50977;BME280;36992;48.200;12.418;2022-07-29T09:07:14;96636.28;;;27.19;38.52
50977;BME280;36992;48.200;12.418;2022-07-29T09:09:41;96630.34;;;27.25;38.32
50977;BME280;36992;48.200;12.418;2022-07-29T09:12:08;96633.06;;;27.28;38.06
50977;BME280;36992;48.200;12.418;2022-07-29T09:14:36;96631.44;;;27.34;38.06
50977;BME280;36992;48.200;12.418;2022-07-29T09:17:03;96633.34;;;27.41;38.05
50977;BME280;36992;48.200;12.418;2022-07-29T09:19:32;96628.19;;;27.47;37.54
50977;BME280;36992;48.200;12.418;2022-07-29T09:22:03;96625.75;;;27.56;37.56
50977;BME280;36992;48.200;12.418;2022-07-29T09:24:38;96625.72;;;27.64;37.66
50977;BME280;36992;48.200;12.418;2022-07-29T09:27:26;96636.28;;;27.76;38.54
50977;BME280;36992;48.200;12.418;2022-07-29T09:29:58;96638.22;;;27.79;37.92
50977;BME280;36992;48.200;12.418;2022-07-29T09:32:25;96634.28;;;27.80;36.27
50977;BME280;36992;48.200;12.418;2022-07-29T09:35:13;96636.91;;;27.95;37.88
50977;BME280;36992;48.200;12.418;2022-07-29T09:37:42;96627.03;;;27.94;36.17
50977;BME280;36992;48.200;12.418;2022-07-29T09:40:12;96627.00;;;27.97;36.71
50977;BME280;36992;48.200;12.418;2022-07-29T09:42:38;96622.63;;;28.00;35.86
50977;BME280;36992;48.200;12.418;2022-07-29T09:45:05;96625.31;;;28.07;35.51
50977;BME280;36992;48.200;12.418;2022-07-29T09:47:41;96624.41;;;28.18;35.79
50977;BME280;36992;48.200;12.418;2022-07-29T09:50:10;96614.13;;;28.18;35.46
50977;BME280;36992;48.200;12.418;2022-07-29T09:52:46;96608.13;;;28.27;36.11
50977;BME280;36992;48.200;12.418;2022-07-29T09:55:13;96612.47;;;28.28;35.25
50977;BME280;36992;48.200;12.418;2022-07-29T09:57:40;96610.06;;;28.30;35.03
50977;BME280;36992;48.200;12.418;2022-07-29T10:00:09;96606.41;;;28.37;36.29
50977;BME280;36992;48.200;12.418;2022-07-29T10:02:37;96603.63;;;28.40;34.70
50977;BME280;36992;48.200;12.418;2022-07-29T10:05:06;96610.28;;;28.47;34.57
50977;BME280;36992;48.200;12.418;2022-07-29T10:07:47;96608.53;;;28.60;35.69
50977;BME280;36992;48.200;12.418;2022-07-29T10:10:21;96608.81;;;28.70;35.54
50977;BME280;36992;48.200;12.418;2022-07-29T10:12:49;96612.69;;;28.76;34.54
50977;BME280;36992;48.200;12.418;2022-07-29T10:15:16;96611.78;;;28.86;35.02
50977;BME280;36992;48.200;12.418;2022-07-29T10:17:44;96609.28;;;28.95;33.35
50977;BME280;36992;48.200;12.418;2022-07-29T10:20:11;96620.28;;;29.03;33.15
50977;BME280;36992;48.200;12.418;2022-07-29T10:22:38;96618.59;;;29.09;33.11
50977;BME280;36992;48.200;12.418;2022-07-29T10:25:08;96605.03;;;29.15;34.28
50977;BME280;36992;48.200;12.418;2022-07-29T10:27:34;96609.75;;;29.18;34.13
50977;BME280;36992;48.200;12.418;2022-07-29T10:30:01;96600.19;;;29.23;33.19
50977;BME280;36992;48.200;12.418;2022-07-29T10:32:48;96601.63;;;29.31;33.86
50977;BME280;36992;48.200;12.418;2022-07-29T10:35:26;96603.19;;;29.32;31.87
50977;BME280;36992;48.200;12.418;2022-07-29T10:38:07;96601.53;;;29.38;32.95
50977;BME280;36992;48.200;12.418;2022-07-29T10:40:43;96606.28;;;29.38;32.59
50977;BME280;36992;48.200;12.418;2022-07-29T10:43:31;96598.69;;;29.42;32.35
50977;BME280;36992;48.200;12.418;2022-07-29T10:46:02;96596.72;;;29.42;31.88
50977;BME280;36992;48.200;12.418;2022-07-29T10:48:29;96597.81;;;29.48;31.38
50977;BME280;36992;48.200;12.418;2022-07-29T10:50:57;96591.88;;;29.50;32.56
50977;BME280;36992;48.200;12.418;2022-07-29T10:53:45;96594.81;;;29.63;32.82
50977;BME280;36992;48.200;12.418;2022-07-29T10:56:25;96595.88;;;29.69;32.73
50977;BME280;36992;48.200;12.418;2022-07-29T10:59:22;96595.75;;;29.77;32.57
50977;BME280;36992;48.200;12.418;2022-07-29T11:01:51;96591.00;;;29.77;31.98
50977;BME280;36992;48.200;12.418;2022-07-29T11:05:01;96590.31;;;29.93;32.96
50977;BME280;36992;48.200;12.418;2022-07-29T11:07:29;96587.53;;;29.93;30.61
50977;BME280;36992;48.200;12.418;2022-07-29T11:10:21;96591.69;;;30.05;32.06
50977;BME280;36992;48.200;12.418;2022-07-29T11:12:49;96587.34;;;30.04;30.65
50977;BME280;36992;48.200;12.418;2022-07-29T11:15:17;96584.47;;;30.08;29.95
50977;BME280;36992;48.200;12.418;2022-07-29T11:18:08;96583.88;;;30.20;31.30
50977;BME280;36992;48.200;12.418;2022-07-29T11:20:39;96579.88;;;30.21;30.83
50977;BME280;36992;48.200;12.418;2022-07-29T11:23:23;96586.09;;;30.29;31.73
50977;BME280;36992;48.200;12.418;2022-07-29T11:26:12;96579.97;;;30.38;32.19
50977;BME280;36992;48.200;12.418;2022-07-29T11:28:48;96583.09;;;30.40;32.02
50977;BME280;36992;48.200;12.418;2022-07-29T11:31:16;96582.31;;;30.39;31.31
50977;BME280;36992;48.200;12.418;2022-07-29T11:33:45;96584.69;;;30.41;31.36
50977;BME280;36992;48.200;12.418;2022-07-29T11:36:14;96579.81;;;30.45;30.87
50977;BME280;36992;48.200;12.418;2022-07-29T11:38:41;96576.63;;;30.47;31.36
50977;BME280;36992;48.200;12.418;2022-07-29T11:41:22;96586.81;;;30.53;31.66
50977;BME280;36992;48.200;12.418;2022-07-29T11:43:52;96575.69;;;30.53;32.27
50977;BME280;36992;48.200;12.418;2022-07-29T11:46:43;96568.75;;;30.62;32.13
50977;BME280;36992;48.200;12.418;2022-07-29T11:49:10;96569.97;;;30.61;31.23
50977;BME280;36992;48.200;12.418;2022-07-29T11:51:37;96575.88;;;30.63;31.74
50977;BME280;36992;48.200;12.418;2022-07-29T11:54:04;96566.69;;;30.66;31.31
50977;BME280;36992;48.200;12.418;2022-07-29T11:56:32;96566.69;;;30.66;32.55
50977;BME280;36992;48.200;12.418;2022-07-29T11:59:07;96569.69;;;30.75;32.24
50977;BME280;36992;48.200;12.418;2022-07-29T12:01:34;96572.13;;;30.73;31.46
50977;BME280;36992;48.200;12.418;2022-07-29T12:04:04;96566.41;;;30.80;32.03
50977;BME280;36992;48.200;12.418;2022-07-29T12:06:32;96568.38;;;30.80;31.70
50977;BME280;36992;48.200;12.418;2022-07-29T12:08:58;96559.97;;;30.83;31.52
50977;BME280;36992;48.200;12.418;2022-07-29T12:11:25;96563.47;;;30.88;31.57
50977;BME280;36992;48.200;12.418;2022-07-29T12:13:52;96561.41;;;30.92;32.28
50977;BME280;36992;48.200;12.418;2022-07-29T12:16:20;96559.28;;;30.96;31.09
50977;BME280;36992;48.200;12.418;2022-07-29T12:18:55;96557.56;;;31.02;31.30
50977;BME280;36992;48.200;12.418;2022-07-29T12:21:21;96553.22;;;31.01;31.60
50977;BME280;36992;48.200;12.418;2022-07-29T12:23:52;96542.81;;;31.05;31.10
50977;BME280;36992;48.200;12.418;2022-07-29T12:26:19;96551.56;;;31.04;32.31
50977;BME280;36992;48.200;12.418;2022-07-29T12:28:46;96548.38;;;31.05;31.85
50977;BME280;36992;48.200;12.418;2022-07-29T12:31:13;96545.25;;;31.03;31.60
50977;BME280;36992;48.200;12.418;2022-07-29T12:33:41;96548.78;;;31.04;31.54
50977;BME280;36992;48.200;12.418;2022-07-29T12:36:08;96551.56;;;31.04;30.99
50977;BME280;36992;48.200;12.418;2022-07-29T12:38:35;96559.16;;;31.03;28.65
50977;BME280;36992;48.200;12.418;2022-07-29T12:41:02;96549.22;;;31.02;29.03
50977;BME280;36992;48.200;12.418;2022-07-29T12:43:29;96554.00;;;31.02;28.44
50977;BME280;36992;48.200;12.418;2022-07-29T12:45:56;96550.09;;;30.99;28.24
50977;BME280;36992;48.200;12.418;2022-07-29T12:48:33;96551.16;;;31.05;28.95
50977;BME280;36992;48.200;12.418;2022-07-29T12:51:03;96547.22;;;31.03;26.49
50977;BME280;36992;48.200;12.418;2022-07-29T12:53:30;96548.16;;;30.96;26.83
50977;BME280;36992;48.200;12.418;2022-07-29T12:55:57;96543.06;;;30.94;26.27
50977;BME280;36992;48.200;12.418;2022-07-29T12:58:31;96540.63;;;30.96;27.85
50977;BME280;36992;48.200;12.418;2022-07-29T13:01:07;96542.28;;;30.94;27.96
50977;BME280;36992;48.200;12.418;2022-07-29T13:03:48;96538.09;;;31.02;28.11
50977;BME280;36992;48.200;12.418;2022-07-29T13:06:35;96533.25;;;31.06;28.79